createdAt,value
2017-05-03T00:00:41.664Z,21
2017-05-03T00:10:41.640Z,21
2017-05-03T00:20:41.616Z,31
2017-05-03T00:30:41.750Z,22
2017-05-03T00:40:41.663Z,25
2017-05-03T00:50:41.635Z,25
2017-05-03T01:00:41.671Z,23
2017-05-03T01:10:41.674Z,28
2017-05-03T01:20:41.727Z,24
2017-05-03T01:30:41.707Z,22
2017-05-03T01:40:41.707Z,24
2017-05-03T01:50:41.735Z,21
2017-05-03T02:00:41.718Z,21
2017-05-03T02:10:41.713Z,23
2017-05-03T02:20:41.812Z,23
2017-05-03T02:30:42.112Z,20
2017-05-03T02:40:41.725Z,26
2017-05-03T02:50:41.756Z,23
2017-05-03T03:00:41.872Z,24
2017-05-03T03:10:41.786Z,22
2017-05-03T03:20:41.770Z,25
2017-05-03T03:30:41.770Z,25
2017-05-03T03:40:41.776Z,32
2017-05-03T03:50:41.811Z,27
2017-05-03T04:00:41.820Z,28
2017-05-03T04:10:41.821Z,30
2017-05-03T04:20:41.820Z,34
2017-05-03T04:30:41.900Z,33
2017-05-03T04:40:41.824Z,30
2017-05-03T04:50:41.817Z,31
2017-05-03T05:00:41.870Z,32
2017-05-03T05:10:41.967Z,32
2017-05-03T05:20:41.929Z,35
2017-05-03T05:30:41.853Z,32
2017-05-03T05:40:41.871Z,35
2017-05-03T05:50:42.006Z,37
2017-05-03T06:00:41.901Z,33
2017-05-03T06:10:41.916Z,32
2017-05-03T06:20:41.893Z,38
2017-05-03T06:30:41.925Z,35
2017-05-03T06:40:42.021Z,31
2017-05-03T06:50:41.987Z,29
2017-05-03T07:00:42.152Z,28
2017-05-03T07:10:41.945Z,26
2017-05-03T07:20:42.130Z,24
2017-05-03T07:30:42.049Z,21
2017-05-03T07:40:42.019Z,18
2017-05-03T07:50:42.016Z,15
2017-05-03T08:00:54.226Z,16
2017-05-03T08:10:41.979Z,17
2017-05-03T08:20:42.073Z,15
2017-05-03T08:30:42.124Z,18
2017-05-03T08:40:42.527Z,16
2017-05-03T08:50:41.983Z,13
2017-05-03T09:00:42.246Z,12
2017-05-03T09:10:41.993Z,11
2017-05-03T09:20:42.045Z,10
2017-05-03T09:30:42.015Z,11
2017-05-03T09:40:42.093Z,12
2017-05-03T09:50:42.011Z,10
2017-05-03T10:00:42.066Z,11
2017-05-03T10:10:42.070Z,11
2017-05-03T10:20:42.029Z,10
2017-05-03T10:30:42.014Z,11
2017-05-03T10:40:41.993Z,12
2017-05-03T10:50:41.993Z,12
2017-05-03T11:00:42.057Z,12
2017-05-03T11:10:42.102Z,11
2017-05-03T11:20:42.059Z,12
2017-05-03T11:30:42.022Z,12
2017-05-03T11:40:42.028Z,13
2017-05-03T11:50:42.013Z,12
2017-05-03T12:00:42.015Z,13
2017-05-03T12:10:42.087Z,13
2017-05-03T12:20:42.015Z,12
2017-05-03T12:30:42.020Z,14
2017-05-03T12:40:42.009Z,14
2017-05-03T12:50:42.120Z,14
2017-05-03T13:00:42.031Z,13
2017-05-03T13:10:41.995Z,15
2017-05-03T13:20:42.017Z,15
2017-05-03T13:30:42.027Z,14
2017-05-03T13:40:44.118Z,15
2017-05-03T13:50:42.136Z,16
2017-05-03T14:00:42.707Z,15
2017-05-03T14:10:42.165Z,14
2017-05-03T14:20:42.044Z,16
2017-05-03T14:30:42.152Z,16
2017-05-03T14:40:42.331Z,15
2017-05-03T14:50:42.235Z,16
2017-05-03T15:00:42.226Z,18
2017-05-03T15:10:42.184Z,19
2017-05-03T15:20:42.148Z,17
2017-05-03T15:30:42.327Z,16
2017-05-03T15:40:42.116Z,18
2017-05-03T15:50:42.187Z,17
2017-05-03T16:00:42.375Z,16
2017-05-03T16:10:42.203Z,21
2017-05-03T16:20:42.133Z,21
2017-05-03T16:30:42.116Z,25
2017-05-03T16:40:42.164Z,25
2017-05-03T16:50:42.069Z,24
2017-05-03T17:00:42.220Z,27
2017-05-03T17:10:42.116Z,26
2017-05-03T17:20:42.155Z,22
2017-05-03T17:30:42.213Z,27
2017-05-03T17:40:42.101Z,25
2017-05-03T17:50:42.188Z,27
2017-05-03T18:00:42.282Z,30
2017-05-03T18:10:42.055Z,28
2017-05-03T18:20:42.129Z,9
2017-05-03T18:30:42.049Z,9
2017-05-03T18:40:42.072Z,11
2017-05-03T18:50:42.113Z,9
2017-05-03T19:00:42.129Z,12
2017-05-03T19:10:42.154Z,9
2017-05-03T19:20:42.773Z,13
2017-05-03T19:30:42.138Z,18
2017-05-03T19:40:42.545Z,16
2017-05-03T19:50:42.183Z,11
2017-05-03T20:00:42.240Z,15
2017-05-03T20:10:42.165Z,22
2017-05-03T20:20:42.116Z,24
2017-05-03T20:30:43.260Z,32
2017-05-03T20:40:42.365Z,31
2017-05-03T20:50:42.163Z,31
2017-05-03T21:00:42.309Z,40
2017-05-03T21:10:43.007Z,34
2017-05-03T21:20:42.407Z,43
2017-05-03T21:30:43.005Z,34
2017-05-03T21:40:42.547Z,38
2017-05-03T21:50:43.688Z,42
2017-05-03T22:00:42.797Z,47
2017-05-03T22:10:43.481Z,42
2017-05-03T22:20:42.032Z,37
2017-05-03T22:30:42.104Z,36
2017-05-03T22:40:42.015Z,35
2017-05-03T22:50:42.119Z,34
2017-05-03T23:00:42.069Z,32
2017-05-03T23:10:42.075Z,33
2017-05-03T23:20:42.134Z,30
2017-05-03T23:30:42.035Z,28
2017-05-03T23:40:41.997Z,28
2017-05-03T23:50:41.998Z,26
